Riske Creek, Canada
Current Conditions -  °F | °C
As of 2:00 PM on Saturday 20 Dec 2014 (Local Time) from CYWL Reporting Station
Overcast Overcast  
Wind Chill: 27°   Ceiling: 9000
Heat Index: 37°   Visibility: 15mi
Dew Point: 27°   Wind: 21mph
Humidity: 65%   Direction: 110°ESE
Pressure: 29.34"   Gusts: 29mph
Location:  51.97°N, 122.52°W
Report Text: CYWL 202200Z 11018G25KT 15SM SCT040 OVC090 03/M03 A2934 RMK SC3AC5 SLP962
Loading
Personal Weather Stations






























Interactive Weather Map New forecast layout! Learn more

10-Day Weather Forecast

Advertisements
Track Severe Weather on mobile